createdAt,value
2018-06-05T00:00:50.325Z,32.97
2018-06-05T00:03:17.888Z,34.83
2018-06-05T00:05:46.264Z,33.57
2018-06-05T00:08:15.575Z,33.33
2018-06-05T00:10:43.907Z,35.27
2018-06-05T00:13:11.527Z,34.93
2018-06-05T00:15:39.106Z,34.20
2018-06-05T00:18:06.691Z,34.83
2018-06-05T00:20:34.281Z,34.17
2018-06-05T00:23:01.864Z,34.10
2018-06-05T00:25:29.428Z,33.63
2018-06-05T00:27:57.813Z,31.13
2018-06-05T00:30:26.133Z,33.83
2018-06-05T00:32:53.709Z,32.77
2018-06-05T00:35:21.302Z,33.00
2018-06-05T00:37:49.656Z,41.00
2018-06-05T00:40:17.226Z,35.17
2018-06-05T00:42:44.836Z,39.53
2018-06-05T00:45:12.397Z,34.50
2018-06-05T00:47:39.965Z,33.20
2018-06-05T00:50:09.439Z,32.33
2018-06-05T00:52:37.774Z,33.07
2018-06-05T00:55:05.341Z,33.60
2018-06-05T00:57:32.941Z,34.17
2018-06-05T01:00:01.278Z,35.23
2018-06-05T01:02:28.846Z,36.20
2018-06-05T01:04:56.454Z,35.17
2018-06-05T01:07:24.021Z,36.47
2018-06-05T01:09:51.584Z,34.90
2018-06-05T01:12:19.209Z,35.93
2018-06-05T01:14:47.547Z,36.00
2018-06-05T01:17:15.125Z,35.77
2018-06-05T01:19:42.738Z,36.90
2018-06-05T01:22:10.310Z,36.17
2018-06-05T01:24:37.878Z,34.87
2018-06-05T01:27:05.479Z,34.87
2018-06-05T01:29:33.040Z,35.20
2018-06-05T01:32:00.601Z,36.83
2018-06-05T01:34:28.228Z,36.37
2018-06-05T01:36:55.802Z,36.57
2018-06-05T01:39:23.377Z,35.93
2018-06-05T01:41:50.990Z,35.97
2018-06-05T01:44:19.331Z,36.23
2018-06-05T01:46:46.899Z,34.90
2018-06-05T01:49:14.504Z,36.07
2018-06-05T01:51:42.074Z,35.60
2018-06-05T01:54:09.635Z,35.17
2018-06-05T01:56:37.878Z,34.73
2018-06-05T01:59:06.234Z,35.83
2018-06-05T02:01:33.804Z,36.63
2018-06-05T02:04:01.409Z,36.40
2018-06-05T02:06:28.971Z,42.62
2018-06-05T02:08:56.545Z,36.17
2018-06-05T02:11:24.151Z,34.37
2018-06-05T02:13:51.741Z,36.03
2018-06-05T02:16:19.308Z,34.23
2018-06-05T02:18:46.929Z,35.97
2018-06-05T02:21:14.496Z,35.33
2018-06-05T02:23:42.067Z,35.77
2018-06-05T02:26:10.448Z,35.50
2018-06-05T02:28:38.392Z,35.00
2018-06-05T02:31:05.960Z,35.97
2018-06-05T02:33:33.552Z,37.00
2018-06-05T02:36:01.115Z,34.50
2018-06-05T02:38:28.749Z,35.63
2018-06-05T02:40:56.778Z,35.73
2018-06-05T02:43:24.352Z,35.03
2018-06-05T02:45:51.921Z,35.50
2018-06-05T02:48:19.511Z,36.70
2018-06-05T02:50:47.089Z,37.07
2018-06-05T02:53:14.659Z,37.13
2018-06-05T02:55:42.259Z,36.50
2018-06-05T02:58:09.859Z,35.37
2018-06-05T03:00:37.434Z,36.20
2018-06-05T03:03:06.330Z,34.93
2018-06-05T03:05:33.872Z,37.03
2018-06-05T03:08:01.434Z,36.07
2018-06-05T03:10:29.052Z,35.73
2018-06-05T03:12:56.622Z,36.70
2018-06-05T03:15:24.193Z,37.13
2018-06-05T03:17:51.794Z,37.90
2018-06-05T03:20:20.131Z,37.60
2018-06-05T03:22:47.713Z,37.47
2018-06-05T03:25:15.686Z,37.00
2018-06-05T03:27:43.243Z,36.63
2018-06-05T03:30:10.815Z,36.57
2018-06-05T03:32:38.442Z,35.93
2018-06-05T03:35:06.010Z,37.67
2018-06-05T03:37:33.594Z,37.20
2018-06-05T03:40:01.209Z,43.75
2018-06-05T03:42:28.781Z,37.47
2018-06-05T03:44:56.341Z,35.60
2018-06-05T03:47:24.337Z,37.63
2018-06-05T03:49:51.909Z,35.77
2018-06-05T03:52:19.484Z,35.40
2018-06-05T03:54:47.104Z,38.10
2018-06-05T03:57:14.720Z,36.57
2018-06-05T03:59:42.240Z,34.73
2018-06-05T04:02:09.840Z,44.90
2018-06-05T04:04:37.405Z,38.30
2018-06-05T04:07:04.976Z,35.87
2018-06-05T04:09:32.602Z,36.40
2018-06-05T04:12:00.173Z,36.70
2018-06-05T04:14:27.733Z,38.17
2018-06-05T04:16:55.328Z,44.35
2018-06-05T04:19:22.934Z,36.17
2018-06-05T04:21:50.529Z,36.17
2018-06-05T04:24:18.143Z,34.73
2018-06-05T04:26:45.723Z,35.57
2018-06-05T04:29:13.281Z,35.07
2018-06-05T04:31:40.997Z,37.17
2018-06-05T04:34:09.294Z,35.13
2018-06-05T04:36:37.301Z,36.23
2018-06-05T04:39:04.905Z,34.33
2018-06-05T04:41:32.478Z,42.20
2018-06-05T04:44:00.047Z,35.63
2018-06-05T04:46:27.673Z,34.90
2018-06-05T04:48:55.239Z,36.10
2018-06-05T04:51:22.803Z,36.40
2018-06-05T04:53:50.451Z,35.07
2018-06-05T04:56:18.779Z,34.60
2018-06-05T04:58:46.350Z,34.67
2018-06-05T05:01:13.965Z,33.87
2018-06-05T05:03:41.533Z,35.03
2018-06-05T05:06:09.104Z,34.83
2018-06-05T05:08:36.708Z,33.10
2018-06-05T05:11:04.275Z,34.63
2018-06-05T05:13:31.860Z,34.00
2018-06-05T05:16:00.226Z,34.20
2018-06-05T05:18:27.831Z,32.83
2018-06-05T05:20:55.416Z,33.17
2018-06-05T05:23:23.449Z,32.63
2018-06-05T05:25:51.015Z,32.27
2018-06-05T05:28:18.592Z,33.93
2018-06-05T05:30:46.217Z,31.43
2018-06-05T05:33:13.772Z,32.83
2018-06-05T05:35:41.341Z,32.33
2018-06-05T05:38:09.994Z,38.53
2018-06-05T05:40:37.563Z,34.63
2018-06-05T05:43:05.128Z,32.23
2018-06-05T05:45:32.752Z,37.78
2018-06-05T05:48:00.322Z,39.10
2018-06-05T05:50:27.886Z,32.30
2018-06-05T05:52:55.494Z,31.80
2018-06-05T05:55:23.831Z,30.93
2018-06-05T05:57:51.387Z,30.63
2018-06-05T06:00:18.992Z,31.87
2018-06-05T06:02:47.334Z,32.13
2018-06-05T06:05:14.907Z,31.97
2018-06-05T06:07:43.186Z,28.87
2018-06-05T06:10:10.753Z,35.25
2018-06-05T06:12:38.362Z,32.23
2018-06-05T06:15:05.939Z,31.47
2018-06-05T06:17:33.500Z,30.30
2018-06-05T06:20:01.073Z,30.10
2018-06-05T06:22:28.677Z,32.10
2018-06-05T06:24:56.281Z,29.17
2018-06-05T06:27:23.849Z,29.80
2018-06-05T06:29:51.456Z,30.00
2018-06-05T06:32:20.026Z,28.97
2018-06-05T06:34:47.613Z,29.73
2018-06-05T06:37:15.220Z,27.53
2018-06-05T06:39:42.790Z,28.77
2018-06-05T06:42:10.359Z,27.40
2018-06-05T06:44:37.958Z,30.07
2018-06-05T06:47:06.329Z,29.27
2018-06-05T06:49:33.864Z,28.50
2018-06-05T06:52:02.048Z,27.70
2018-06-05T06:54:29.658Z,28.10
2018-06-05T06:56:57.177Z,28.40
2018-06-05T06:59:24.812Z,33.65
2018-06-05T07:01:52.373Z,27.67
2018-06-05T07:04:19.939Z,27.13
2018-06-05T07:06:48.947Z,27.67
2018-06-05T07:09:16.513Z,28.50
2018-06-05T07:11:44.079Z,28.60
2018-06-05T07:14:11.732Z,27.47
2018-06-05T07:16:39.311Z,26.83
2018-06-05T07:19:06.896Z,31.00
2018-06-05T07:21:35.343Z,27.50
2018-06-05T07:24:02.941Z,26.43
2018-06-05T07:26:30.490Z,25.90
2018-06-05T07:28:58.876Z,28.27
2018-06-05T07:31:27.243Z,25.20
2018-06-05T07:33:54.781Z,25.27
2018-06-05T07:36:22.397Z,27.27
2018-06-05T07:38:49.969Z,24.63
2018-06-05T07:41:17.536Z,25.33
2018-06-05T07:43:45.162Z,26.00
2018-06-05T07:46:13.532Z,26.47
2018-06-05T07:48:41.071Z,24.70
2018-06-05T07:51:08.719Z,24.53
2018-06-05T07:53:36.294Z,29.52
2018-06-05T07:56:03.867Z,24.30
2018-06-05T07:58:31.920Z,26.63
2018-06-05T08:00:59.495Z,29.00
2018-06-05T08:03:27.077Z,24.53
2018-06-05T08:05:55.472Z,23.77
2018-06-05T08:08:23.040Z,23.67
2018-06-05T08:10:50.605Z,24.37
2018-06-05T08:13:18.688Z,22.20
2018-06-05T08:15:46.261Z,24.07
2018-06-05T08:18:14.143Z,24.03
2018-06-05T08:20:42.634Z,23.53
2018-06-05T08:23:10.203Z,23.20
2018-06-05T08:25:37.779Z,26.08
2018-06-05T08:28:05.408Z,22.57
2018-06-05T08:30:32.975Z,23.90
2018-06-05T08:33:00.574Z,23.23
2018-06-05T08:35:29.443Z,25.20
2018-06-05T08:37:57.079Z,23.03
2018-06-05T08:40:24.571Z,25.42
2018-06-05T08:42:52.206Z,23.60
2018-06-05T08:45:19.772Z,25.27
2018-06-05T08:47:47.339Z,23.80
2018-06-05T08:50:15.510Z,24.93
2018-06-05T08:52:43.087Z,23.27
2018-06-05T08:55:10.657Z,21.70
2018-06-05T08:57:39.613Z,22.13
2018-06-05T09:00:07.175Z,22.63
2018-06-05T09:02:34.773Z,23.00
2018-06-05T09:05:02.753Z,20.93
2018-06-05T09:07:30.325Z,25.70
2018-06-05T09:09:57.895Z,22.10
2018-06-05T09:12:26.305Z,22.13
2018-06-05T09:14:53.877Z,22.47
2018-06-05T09:17:21.453Z,23.30
2018-06-05T09:19:49.074Z,22.93
2018-06-05T09:22:16.644Z,21.83
2018-06-05T09:24:44.210Z,23.90
2018-06-05T09:27:11.854Z,21.23
2018-06-05T09:29:39.427Z,22.20
2018-06-05T09:32:06.991Z,20.40
2018-06-05T09:34:34.621Z,21.47
2018-06-05T09:37:02.178Z,22.83
2018-06-05T09:39:30.514Z,21.03
2018-06-05T09:41:58.492Z,20.40
2018-06-05T09:44:26.058Z,21.47
2018-06-05T09:46:53.828Z,20.03
2018-06-05T09:49:22.603Z,20.90
2018-06-05T09:51:50.181Z,22.23
2018-06-05T09:54:17.742Z,19.93
2018-06-05T09:56:45.376Z,20.03
2018-06-05T09:59:12.988Z,23.30
2018-06-05T10:01:40.546Z,20.90
2018-06-05T10:04:08.931Z,19.67
2018-06-05T10:06:37.266Z,18.70
2018-06-05T10:09:04.842Z,18.80
2018-06-05T10:11:32.465Z,19.70
2018-06-05T10:14:00.042Z,19.43
2018-06-05T10:16:27.607Z,19.83
2018-06-05T10:18:55.217Z,20.20
2018-06-05T10:21:23.542Z,17.93
2018-06-05T10:23:51.122Z,18.83
2018-06-05T10:26:18.728Z,19.70
2018-06-05T10:28:47.058Z,18.93
2018-06-05T10:31:14.632Z,17.23
2018-06-05T10:33:42.253Z,19.93
2018-06-05T10:36:09.822Z,16.30
2018-06-05T10:38:37.387Z,16.17
2018-06-05T10:41:05.058Z,15.97
2018-06-05T10:43:32.586Z,15.87
2018-06-05T10:46:00.918Z,16.83
2018-06-05T10:48:28.529Z,18.00
2018-06-05T10:50:56.090Z,16.03
2018-06-05T10:53:23.653Z,17.07
2018-06-05T10:55:51.272Z,14.63
2018-06-05T10:58:18.841Z,15.60
2018-06-05T11:00:46.405Z,16.33
2018-06-05T11:03:14.009Z,15.13
2018-06-05T11:05:41.565Z,16.13
2018-06-05T11:08:09.133Z,14.77
2018-06-05T11:10:36.746Z,14.93
2018-06-05T11:13:04.309Z,14.40
2018-06-05T11:15:31.871Z,13.90
2018-06-05T11:17:59.482Z,15.33
2018-06-05T11:20:27.038Z,15.10
2018-06-05T11:22:54.604Z,15.33
2018-06-05T11:25:22.210Z,14.45
2018-06-05T11:27:50.027Z,13.10
2018-06-05T11:30:17.606Z,14.85
2018-06-05T11:32:45.249Z,13.27
2018-06-05T11:35:13.547Z,13.30
2018-06-05T11:37:41.104Z,10.60
2018-06-05T11:40:08.702Z,9.27
2018-06-05T11:42:36.261Z,10.13
2018-06-05T11:45:03.824Z,10.15
2018-06-05T11:47:32.413Z,10.13
2018-06-05T11:49:59.980Z,10.68
2018-06-05T11:52:27.538Z,9.37
2018-06-05T11:54:55.160Z,9.70
2018-06-05T11:57:22.724Z,9.43
2018-06-05T11:59:50.292Z,7.70
2018-06-05T12:02:17.888Z,8.60
2018-06-05T12:04:45.454Z,7.40
2018-06-05T12:07:13.780Z,8.83
2018-06-05T12:09:41.389Z,8.90
2018-06-05T12:12:09.051Z,8.80
2018-06-05T12:14:36.604Z,7.90
2018-06-05T12:17:04.750Z,9.13
2018-06-05T12:19:32.310Z,10.48
2018-06-05T12:21:59.868Z,9.90
2018-06-05T12:24:27.469Z,8.97
2018-06-05T12:26:55.025Z,9.13
2018-06-05T12:29:22.579Z,8.07
2018-06-05T12:31:50.630Z,8.83
2018-06-05T12:34:18.180Z,8.10
2018-06-05T12:36:45.753Z,8.80
2018-06-05T12:39:13.374Z,8.40
2018-06-05T12:41:40.940Z,7.97
2018-06-05T12:44:08.487Z,8.13
2018-06-05T12:46:36.087Z,8.53
2018-06-05T12:49:03.652Z,8.20
2018-06-05T12:51:31.249Z,8.07
2018-06-05T12:54:00.124Z,8.47
2018-06-05T12:56:27.673Z,8.23
2018-06-05T12:58:55.232Z,9.68
2018-06-05T13:01:22.838Z,10.33
2018-06-05T13:03:51.165Z,9.73
2018-06-05T13:06:18.715Z,9.40
2018-06-05T13:08:46.328Z,9.50
2018-06-05T13:11:13.876Z,10.00
2018-06-05T13:13:41.437Z,9.30
2018-06-05T13:16:17.493Z,10.27
2018-06-05T13:18:45.098Z,10.87
2018-06-05T13:21:12.612Z,9.77
2018-06-05T13:23:40.220Z,10.33
2018-06-05T13:26:07.821Z,10.10
2018-06-05T13:28:35.335Z,9.77
2018-06-05T13:31:03.223Z,10.50
2018-06-05T13:33:30.775Z,9.70
2018-06-05T13:35:58.683Z,8.70
2018-06-05T13:38:26.289Z,10.00
2018-06-05T13:40:54.622Z,9.27
2018-06-05T13:43:22.188Z,9.03
2018-06-05T13:45:49.799Z,8.77
2018-06-05T13:48:18.119Z,9.07
2018-06-05T13:50:45.679Z,9.73
2018-06-05T13:53:13.289Z,9.57
2018-06-05T13:55:41.616Z,9.37
2018-06-05T13:58:09.186Z,9.17
2018-06-05T14:00:36.787Z,8.77
2018-06-05T14:03:04.353Z,9.77
2018-06-05T14:05:32.678Z,9.20
2018-06-05T14:08:00.291Z,9.40
2018-06-05T14:10:28.626Z,8.47
2018-06-05T14:12:56.184Z,8.60
2018-06-05T14:15:23.823Z,8.93
2018-06-05T14:17:51.385Z,8.30
2018-06-05T14:20:18.949Z,9.10
2018-06-05T14:22:46.577Z,8.77
2018-06-05T14:25:14.140Z,8.53
2018-06-05T14:27:42.466Z,8.70
2018-06-05T14:30:10.101Z,8.27
2018-06-05T14:32:37.651Z,8.17
2018-06-05T14:35:05.210Z,8.90
2018-06-05T14:37:33.579Z,8.53
2018-06-05T14:40:01.941Z,8.90
2018-06-05T14:42:29.458Z,8.77
2018-06-05T14:44:57.678Z,8.33
2018-06-05T14:47:25.234Z,8.17
2018-06-05T14:49:52.776Z,8.83
2018-06-05T14:52:22.903Z,8.40
2018-06-05T14:54:50.523Z,8.77
2018-06-05T14:57:18.046Z,8.63
2018-06-05T14:59:46.506Z,8.93
2018-06-05T15:02:14.086Z,8.10
2018-06-05T15:04:41.626Z,8.07
2018-06-05T15:07:09.237Z,8.30
2018-06-05T15:09:37.552Z,7.60
2018-06-05T15:12:05.103Z,7.23
2018-06-05T15:14:33.507Z,8.17
2018-06-05T15:17:01.073Z,7.73
2018-06-05T15:19:28.640Z,9.03
2018-06-05T15:21:56.301Z,9.10
2018-06-05T15:24:23.872Z,8.97
2018-06-05T15:26:51.443Z,9.55
2018-06-05T15:29:19.086Z,10.30
2018-06-05T15:31:46.637Z,8.73
2018-06-05T15:34:14.247Z,8.73
2018-06-05T15:36:41.804Z,8.80
2018-06-05T15:39:10.129Z,9.07
2018-06-05T15:41:37.689Z,8.67
2018-06-05T15:44:06.307Z,9.00
2018-06-05T15:46:33.872Z,8.50
2018-06-05T15:49:01.449Z,8.07
2018-06-05T15:51:29.848Z,8.50
2018-06-05T15:53:57.404Z,8.63
2018-06-05T15:56:24.958Z,9.20
2018-06-05T15:58:53.332Z,8.93
2018-06-05T16:01:20.888Z,9.73
2018-06-05T16:03:48.452Z,10.20
2018-06-05T16:06:16.852Z,9.40
2018-06-05T16:08:44.442Z,8.87
2018-06-05T16:11:11.973Z,9.00
2018-06-05T16:13:41.320Z,9.23
2018-06-05T16:16:08.890Z,9.13
2018-06-05T16:18:36.446Z,9.47
2018-06-05T16:21:04.403Z,9.73
2018-06-05T16:23:32.099Z,8.43
2018-06-05T16:25:59.591Z,9.33
2018-06-05T16:28:27.613Z,9.88
2018-06-05T16:30:55.178Z,9.30
2018-06-05T16:33:22.759Z,10.20
2018-06-05T16:35:50.376Z,9.40
2018-06-05T16:38:17.943Z,9.50
2018-06-05T16:40:45.497Z,9.17
2018-06-05T16:43:13.096Z,8.93
2018-06-05T16:45:40.891Z,9.40
2018-06-05T16:48:09.224Z,9.90
2018-06-05T16:50:37.664Z,9.43
2018-06-05T16:53:05.221Z,9.23
2018-06-05T16:55:32.778Z,9.77
2018-06-05T16:58:00.899Z,8.87
2018-06-05T17:00:28.469Z,8.63
2018-06-05T17:02:56.019Z,8.87
2018-06-05T17:05:24.769Z,8.93
2018-06-05T17:07:52.320Z,8.43
2018-06-05T17:10:19.904Z,8.43
2018-06-05T17:12:48.067Z,8.33
2018-06-05T17:15:15.572Z,8.77
2018-06-05T17:17:43.157Z,8.63
2018-06-05T17:20:10.785Z,9.35
2018-06-05T17:22:38.341Z,8.87
2018-06-05T17:25:05.896Z,8.20
2018-06-05T17:27:33.565Z,8.57
2018-06-05T17:30:01.058Z,8.63
2018-06-05T17:32:28.616Z,7.67
2018-06-05T17:34:56.992Z,9.00
2018-06-05T17:37:24.565Z,9.18
2018-06-05T17:39:52.118Z,9.00
2018-06-05T17:42:19.733Z,8.07
2018-06-05T17:44:47.293Z,9.25
2018-06-05T17:47:14.849Z,8.23
2018-06-05T17:49:42.928Z,8.47
2018-06-05T17:52:10.492Z,8.10
2018-06-05T17:54:38.056Z,8.07
2018-06-05T17:57:05.664Z,8.30
2018-06-05T17:59:33.214Z,7.93
2018-06-05T18:02:00.798Z,7.90
2018-06-05T18:04:28.933Z,8.53
2018-06-05T18:06:56.489Z,8.50
2018-06-05T18:09:24.070Z,8.30
2018-06-05T18:11:51.739Z,8.37
2018-06-05T18:14:19.308Z,8.83
2018-06-05T18:16:47.091Z,8.37
2018-06-05T18:19:16.035Z,8.00
2018-06-05T18:21:43.591Z,8.20
2018-06-05T18:24:11.154Z,8.13
2018-06-05T18:26:38.789Z,7.90
2018-06-05T18:29:06.333Z,8.07
2018-06-05T18:31:33.898Z,8.70
2018-06-05T18:34:02.265Z,9.97
2018-06-05T18:36:29.823Z,11.27
2018-06-05T18:38:57.381Z,13.00
2018-06-05T18:41:24.990Z,12.63
2018-06-05T18:43:52.599Z,14.30
2018-06-05T18:46:20.155Z,14.87
2018-06-05T18:48:48.082Z,14.77
2018-06-05T18:53:55.383Z,15.67
2018-06-05T18:56:22.948Z,14.93
2018-06-05T18:58:50.518Z,15.83
2018-06-05T19:01:18.959Z,15.60
2018-06-05T19:03:47.285Z,16.83
2018-06-05T19:06:14.850Z,17.37
2018-06-05T19:08:42.513Z,16.97
2018-06-05T19:11:10.088Z,15.90
2018-06-05T19:13:37.672Z,17.50
2018-06-05T19:16:06.497Z,17.40
2018-06-05T19:18:34.064Z,17.63
2018-06-05T19:21:01.636Z,17.90
2018-06-05T19:23:29.726Z,18.30
2018-06-05T19:25:57.293Z,17.67
2018-06-05T19:28:24.851Z,19.10
2018-06-05T19:30:52.453Z,18.23
2018-06-05T19:33:20.022Z,19.17
2018-06-05T19:35:48.348Z,18.60
2018-06-05T19:38:16.527Z,18.80
2018-06-05T19:40:44.110Z,20.37
2018-06-05T19:43:11.671Z,20.23
2018-06-05T19:45:39.276Z,19.60
2018-06-05T19:48:06.843Z,19.43
2018-06-05T19:50:34.406Z,18.27
2018-06-05T19:53:02.016Z,18.73
2018-06-05T19:55:29.580Z,19.10
2018-06-05T19:57:58.326Z,18.83
2018-06-05T20:00:26.006Z,19.07
2018-06-05T20:02:53.595Z,20.27
2018-06-05T20:05:21.168Z,20.67
2018-06-05T20:07:48.776Z,20.70
2018-06-05T20:10:16.339Z,20.73
2018-06-05T20:12:43.896Z,22.33
2018-06-05T20:15:11.541Z,21.70
2018-06-05T20:17:39.105Z,20.93
2018-06-05T20:20:06.702Z,21.43
2018-06-05T20:22:34.308Z,20.50
2018-06-05T20:25:03.700Z,24.10
2018-06-05T20:27:32.035Z,21.70
2018-06-05T20:30:00.873Z,22.13
2018-06-05T20:32:29.222Z,22.47
2018-06-05T20:34:56.780Z,26.33
2018-06-05T20:37:24.389Z,24.43
2018-06-05T20:39:51.966Z,24.97
2018-06-05T20:42:19.528Z,24.20
2018-06-05T20:44:47.139Z,24.33
2018-06-05T20:47:14.732Z,24.33
2018-06-05T20:49:42.290Z,29.40
2018-06-05T20:52:11.663Z,26.97
2018-06-05T20:54:37.990Z,27.87
2018-06-05T20:57:05.548Z,27.70
2018-06-05T20:59:33.159Z,29.00
2018-06-05T21:02:00.724Z,28.53
2018-06-05T21:04:28.296Z,29.97
2018-06-05T21:06:55.927Z,30.80
2018-06-05T21:09:24.255Z,30.27
2018-06-05T21:11:51.824Z,31.80
2018-06-05T21:14:19.467Z,32.33
2018-06-05T21:16:47.035Z,33.13
2018-06-05T21:19:14.596Z,33.60
2018-06-05T21:21:42.255Z,33.10
2018-06-05T21:24:09.881Z,33.80
2018-06-05T21:26:37.397Z,36.10
2018-06-05T21:29:05.001Z,34.27
2018-06-05T21:31:33.329Z,35.20
2018-06-05T21:34:00.886Z,36.27
2018-06-05T21:36:28.528Z,38.33
2018-06-05T21:38:56.072Z,37.63
2018-06-05T21:41:24.405Z,36.03
2018-06-05T21:43:52.043Z,39.03
2018-06-05T21:46:19.599Z,40.17
2018-06-05T21:48:47.154Z,39.87
2018-06-05T21:51:14.766Z,40.57
2018-06-05T21:53:42.322Z,39.97
2018-06-05T21:56:09.890Z,47.03
2018-06-05T21:58:37.494Z,40.47
2018-06-05T22:01:05.058Z,48.75
2018-06-05T22:03:32.679Z,42.63
2018-06-05T22:06:00.279Z,42.13
2018-06-05T22:08:27.842Z,42.50
2018-06-05T22:10:55.410Z,41.03
2018-06-05T22:13:23.003Z,49.75
2018-06-05T22:15:50.558Z,42.80
2018-06-05T22:18:18.123Z,41.87
2018-06-05T22:20:45.735Z,40.87
2018-06-05T22:23:14.075Z,40.30
2018-06-05T22:25:41.638Z,42.20
2018-06-05T22:28:09.266Z,50.92
2018-06-05T22:30:36.828Z,50.80
2018-06-05T22:33:04.390Z,42.53
2018-06-05T22:35:31.989Z,44.10
2018-06-05T22:37:59.549Z,41.50
2018-06-05T22:40:27.114Z,41.10
2018-06-05T22:42:54.702Z,43.23
2018-06-05T22:45:23.038Z,51.37
2018-06-05T22:47:50.603Z,43.73
2018-06-05T22:50:18.659Z,52.53
2018-06-05T22:52:46.218Z,43.67
2018-06-05T22:55:13.782Z,43.67
2018-06-05T22:57:41.388Z,42.83
2018-06-05T23:00:09.729Z,42.93
2018-06-05T23:02:37.302Z,43.77
2018-06-05T23:05:04.900Z,44.17
2018-06-05T23:07:33.238Z,45.30
2018-06-05T23:10:00.807Z,44.63
2018-06-05T23:12:28.771Z,43.27
2018-06-05T23:14:56.345Z,45.20
2018-06-05T23:17:23.898Z,45.43
2018-06-05T23:19:51.491Z,45.00
2018-06-05T23:22:19.826Z,45.30
2018-06-05T23:24:47.385Z,44.00
2018-06-05T23:27:14.993Z,45.20
2018-06-05T23:29:43.336Z,44.80
2018-06-05T23:32:10.908Z,45.03
2018-06-05T23:34:39.431Z,44.37
2018-06-05T23:37:07.052Z,44.00
2018-06-05T23:39:34.619Z,45.87
2018-06-05T23:42:02.216Z,46.80
2018-06-05T23:44:29.776Z,44.87
2018-06-05T23:46:57.353Z,43.60
2018-06-05T23:49:24.967Z,47.37
2018-06-05T23:51:52.520Z,46.57
2018-06-05T23:54:20.116Z,45.83
2018-06-05T23:56:48.130Z,46.57
2018-06-05T23:59:15.694Z,56.53
